LEBL/BCN METAR and TAF weather

Enter ICAO airport designator
Station Type Date Time Source
LEBL METAR 2022/06/26 08:00 UTC NOAA

LEBL 260800Z 09013KT 9999 FEW013 BKN028 25/20 Q1011 NOSIG


Station Type Date Time Source
LEBL Decoded METAR 2022/06/26 08:00 UTC NOAA

Barcelona / Aeropuerto, Spain (LEBL) 41-17N 002-04E 6M
Jun 26, 2022 - 04:00 AM EDT / 2022.06.26 0800 UTC
Wind: from the E (090 degrees) at 15 MPH (13 KT):0
Visibility: greater than 7 mile(s):0
Sky conditions: mostly cloudy
Temperature: 77 F (25 C)
Dew Point: 68 F (20 C)
Relative Humidity: 73%
Pressure (altimeter): 29.85 in. Hg (1011 hPa)
ob: LEBL 260800Z 09013KT 9999 FEW013 BKN028 25/20 Q1011 NOSIG
cycle: 8

Station Type Date Time Source
LEBL TAF 2022/06/26 06:27 UTC NOAA

TAF LEBL 260500Z 2606/2706 07012KT 9999 FEW014 TX27/2612Z TN22/2606Z PROB40
TEMPO 2606/2611 07015G25KT
BECMG 2614/2616 13007KT
BECMG 2618/2620 VRB04KT

Example: see airport list